sensor_id;sensor_type;location;lat;lon;timestamp;P1;durP1;ratioP1;P2;durP2;ratioP2
18102;SDS011;9178;51.120;6.192;2022-11-20T00:00:23;18.00;;;11.57;;
18102;SDS011;9178;51.120;6.192;2022-11-20T00:02:49;14.83;;;10.57;;
18102;SDS011;9178;51.120;6.192;2022-11-20T00:05:16;16.27;;;10.93;;
18102;SDS011;9178;51.120;6.192;2022-11-20T00:07:44;19.53;;;11.53;;
18102;SDS011;9178;51.120;6.192;2022-11-20T00:10:13;16.87;;;10.67;;
18102;SDS011;9178;51.120;6.192;2022-11-20T00:12:41;17.47;;;11.77;;
18102;SDS011;9178;51.120;6.192;2022-11-20T00:15:08;16.97;;;11.07;;
18102;SDS011;9178;51.120;6.192;2022-11-20T00:17:36;16.50;;;10.87;;
18102;SDS011;9178;51.120;6.192;2022-11-20T00:20:03;16.83;;;11.07;;
18102;SDS011;9178;51.120;6.192;2022-11-20T00:22:30;18.13;;;11.57;;
18102;SDS011;9178;51.120;6.192;2022-11-20T00:24:57;16.73;;;11.23;;
18102;SDS011;9178;51.120;6.192;2022-11-20T00:27:24;17.40;;;11.67;;
18102;SDS011;9178;51.120;6.192;2022-11-20T00:29:52;17.43;;;10.93;;
18102;SDS011;9178;51.120;6.192;2022-11-20T00:32:19;19.97;;;11.83;;
18102;SDS011;9178;51.120;6.192;2022-11-20T00:34:47;17.83;;;11.30;;
18102;SDS011;9178;51.120;6.192;2022-11-20T00:37:13;17.77;;;11.83;;
18102;SDS011;9178;51.120;6.192;2022-11-20T00:39:40;16.87;;;11.53;;
18102;SDS011;9178;51.120;6.192;2022-11-20T00:42:07;17.40;;;11.30;;
18102;SDS011;9178;51.120;6.192;2022-11-20T00:44:34;18.33;;;11.53;;
18102;SDS011;9178;51.120;6.192;2022-11-20T00:47:02;16.30;;;10.83;;
18102;SDS011;9178;51.120;6.192;2022-11-20T00:49:29;19.10;;;11.83;;
18102;SDS011;9178;51.120;6.192;2022-11-20T00:51:56;18.43;;;12.07;;
18102;SDS011;9178;51.120;6.192;2022-11-20T00:54:23;17.40;;;11.43;;
18102;SDS011;9178;51.120;6.192;2022-11-20T00:56:50;17.83;;;11.80;;
18102;SDS011;9178;51.120;6.192;2022-11-20T00:59:19;19.40;;;11.80;;
18102;SDS011;9178;51.120;6.192;2022-11-20T01:01:46;18.97;;;11.70;;
18102;SDS011;9178;51.120;6.192;2022-11-20T01:04:14;18.63;;;11.13;;
18102;SDS011;9178;51.120;6.192;2022-11-20T01:06:41;16.97;;;11.37;;
18102;SDS011;9178;51.120;6.192;2022-11-20T01:09:09;17.90;;;12.23;;
18102;SDS011;9178;51.120;6.192;2022-11-20T01:11:38;19.20;;;12.10;;
18102;SDS011;9178;51.120;6.192;2022-11-20T01:14:07;16.83;;;12.03;;
18102;SDS011;9178;51.120;6.192;2022-11-20T01:16:37;18.90;;;11.87;;
18102;SDS011;9178;51.120;6.192;2022-11-20T01:19:06;19.77;;;12.23;;
18102;SDS011;9178;51.120;6.192;2022-11-20T01:21:37;17.90;;;11.93;;
18102;SDS011;9178;51.120;6.192;2022-11-20T01:24:05;17.03;;;11.97;;
18102;SDS011;9178;51.120;6.192;2022-11-20T01:26:34;17.90;;;12.37;;
18102;SDS011;9178;51.120;6.192;2022-11-20T01:29:03;18.80;;;12.17;;
18102;SDS011;9178;51.120;6.192;2022-11-20T01:31:31;17.83;;;11.93;;
18102;SDS011;9178;51.120;6.192;2022-11-20T01:34:00;17.87;;;11.23;;
18102;SDS011;9178;51.120;6.192;2022-11-20T01:36:29;17.87;;;12.23;;
18102;SDS011;9178;51.120;6.192;2022-11-20T01:38:59;19.23;;;12.00;;
18102;SDS011;9178;51.120;6.192;2022-11-20T01:41:28;16.33;;;11.27;;
18102;SDS011;9178;51.120;6.192;2022-11-20T01:44:15;19.27;;;12.07;;
18102;SDS011;9178;51.120;6.192;2022-11-20T01:46:45;18.17;;;12.10;;
18102;SDS011;9178;51.120;6.192;2022-11-20T01:49:21;19.77;;;12.53;;
18102;SDS011;9178;51.120;6.192;2022-11-20T01:51:54;17.93;;;11.63;;
18102;SDS011;9178;51.120;6.192;2022-11-20T01:54:27;16.63;;;11.17;;
18102;SDS011;9178;51.120;6.192;2022-11-20T01:57:00;17.47;;;12.00;;
18102;SDS011;9178;51.120;6.192;2022-11-20T01:59:30;16.90;;;11.53;;
18102;SDS011;9178;51.120;6.192;2022-11-20T02:01:57;17.17;;;11.30;;
18102;SDS011;9178;51.120;6.192;2022-11-20T02:04:24;22.13;;;12.23;;
18102;SDS011;9178;51.120;6.192;2022-11-20T02:06:52;17.77;;;11.50;;
18102;SDS011;9178;51.120;6.192;2022-11-20T02:09:26;17.33;;;10.90;;
18102;SDS011;9178;51.120;6.192;2022-11-20T02:11:53;16.83;;;11.60;;
18102;SDS011;9178;51.120;6.192;2022-11-20T02:14:20;18.07;;;11.33;;
18102;SDS011;9178;51.120;6.192;2022-11-20T02:16:48;18.33;;;12.10;;
18102;SDS011;9178;51.120;6.192;2022-11-20T02:19:16;17.73;;;11.90;;
18102;SDS011;9178;51.120;6.192;2022-11-20T02:21:50;17.40;;;11.57;;
18102;SDS011;9178;51.120;6.192;2022-11-20T02:24:26;17.97;;;11.50;;
18102;SDS011;9178;51.120;6.192;2022-11-20T02:26:53;18.17;;;11.70;;
18102;SDS011;9178;51.120;6.192;2022-11-20T02:29:24;16.37;;;11.00;;
18102;SDS011;9178;51.120;6.192;2022-11-20T02:31:53;18.30;;;12.33;;
18102;SDS011;9178;51.120;6.192;2022-11-20T02:34:22;17.13;;;11.37;;
18102;SDS011;9178;51.120;6.192;2022-11-20T02:36:49;21.83;;;13.00;;
18102;SDS011;9178;51.120;6.192;2022-11-20T02:39:18;19.07;;;12.07;;
18102;SDS011;9178;51.120;6.192;2022-11-20T02:41:48;16.50;;;11.40;;
18102;SDS011;9178;51.120;6.192;2022-11-20T02:44:14;17.80;;;11.70;;
18102;SDS011;9178;51.120;6.192;2022-11-20T02:46:41;21.27;;;12.00;;
18102;SDS011;9178;51.120;6.192;2022-11-20T02:49:08;19.93;;;12.50;;
18102;SDS011;9178;51.120;6.192;2022-11-20T02:51:35;19.07;;;12.40;;
18102;SDS011;9178;51.120;6.192;2022-11-20T02:54:02;18.03;;;11.60;;
18102;SDS011;9178;51.120;6.192;2022-11-20T02:56:29;19.73;;;13.23;;
18102;SDS011;9178;51.120;6.192;2022-11-20T02:58:58;21.33;;;12.67;;
18102;SDS011;9178;51.120;6.192;2022-11-20T03:01:25;17.53;;;12.17;;
18102;SDS011;9178;51.120;6.192;2022-11-20T03:03:52;21.63;;;12.97;;
18102;SDS011;9178;51.120;6.192;2022-11-20T03:06:19;18.43;;;11.60;;
18102;SDS011;9178;51.120;6.192;2022-11-20T03:08:46;20.13;;;13.20;;
18102;SDS011;9178;51.120;6.192;2022-11-20T03:11:13;21.27;;;12.70;;
18102;SDS011;9178;51.120;6.192;2022-11-20T03:13:40;19.30;;;12.73;;
18102;SDS011;9178;51.120;6.192;2022-11-20T03:16:09;20.47;;;13.23;;
18102;SDS011;9178;51.120;6.192;2022-11-20T03:18:37;20.33;;;12.80;;
18102;SDS011;9178;51.120;6.192;2022-11-20T03:21:04;17.97;;;12.57;;
18102;SDS011;9178;51.120;6.192;2022-11-20T03:23:32;21.70;;;12.73;;
18102;SDS011;9178;51.120;6.192;2022-11-20T03:26:09;20.13;;;12.30;;
18102;SDS011;9178;51.120;6.192;2022-11-20T03:28:37;20.60;;;13.20;;
18102;SDS011;9178;51.120;6.192;2022-11-20T03:31:05;16.83;;;11.90;;
18102;SDS011;9178;51.120;6.192;2022-11-20T03:33:38;20.00;;;12.73;;
18102;SDS011;9178;51.120;6.192;2022-11-20T03:36:06;19.80;;;12.83;;
18102;SDS011;9178;51.120;6.192;2022-11-20T03:38:34;20.70;;;13.17;;
18102;SDS011;9178;51.120;6.192;2022-11-20T03:41:02;20.80;;;12.37;;
18102;SDS011;9178;51.120;6.192;2022-11-20T03:43:31;19.93;;;12.63;;
18102;SDS011;9178;51.120;6.192;2022-11-20T03:45:59;19.60;;;12.70;;
18102;SDS011;9178;51.120;6.192;2022-11-20T03:48:28;18.13;;;12.10;;
18102;SDS011;9178;51.120;6.192;2022-11-20T03:51:05;19.30;;;11.57;;
18102;SDS011;9178;51.120;6.192;2022-11-20T03:53:33;20.23;;;13.13;;
18102;SDS011;9178;51.120;6.192;2022-11-20T03:56:00;20.03;;;12.80;;
18102;SDS011;9178;51.120;6.192;2022-11-20T03:58:27;19.23;;;12.33;;
18102;SDS011;9178;51.120;6.192;2022-11-20T04:00:54;18.33;;;11.97;;
18102;SDS011;9178;51.120;6.192;2022-11-20T04:03:20;20.67;;;12.67;;
18102;SDS011;9178;51.120;6.192;2022-11-20T04:05:49;18.23;;;11.97;;
18102;SDS011;9178;51.120;6.192;2022-11-20T04:08:15;19.53;;;12.40;;
18102;SDS011;9178;51.120;6.192;2022-11-20T04:10:42;18.10;;;12.00;;
18102;SDS011;9178;51.120;6.192;2022-11-20T04:13:09;19.23;;;12.17;;
18102;SDS011;9178;51.120;6.192;2022-11-20T04:15:36;20.43;;;12.30;;
18102;SDS011;9178;51.120;6.192;2022-11-20T04:18:03;18.10;;;12.13;;
18102;SDS011;9178;51.120;6.192;2022-11-20T04:20:29;19.50;;;13.10;;
18102;SDS011;9178;51.120;6.192;2022-11-20T04:22:58;19.67;;;12.30;;
18102;SDS011;9178;51.120;6.192;2022-11-20T04:25:25;18.70;;;11.70;;
18102;SDS011;9178;51.120;6.192;2022-11-20T04:27:51;17.73;;;12.13;;
18102;SDS011;9178;51.120;6.192;2022-11-20T04:30:18;16.07;;;11.30;;
18102;SDS011;9178;51.120;6.192;2022-11-20T04:32:45;17.90;;;11.83;;
18102;SDS011;9178;51.120;6.192;2022-11-20T04:35:12;18.93;;;11.83;;
18102;SDS011;9178;51.120;6.192;2022-11-20T04:37:39;16.13;;;11.57;;
18102;SDS011;9178;51.120;6.192;2022-11-20T04:40:07;19.20;;;12.33;;
18102;SDS011;9178;51.120;6.192;2022-11-20T04:42:34;20.60;;;13.07;;
18102;SDS011;9178;51.120;6.192;2022-11-20T04:45:01;20.40;;;11.67;;
18102;SDS011;9178;51.120;6.192;2022-11-20T04:47:28;20.57;;;12.97;;
18102;SDS011;9178;51.120;6.192;2022-11-20T04:49:55;20.83;;;12.47;;
18102;SDS011;9178;51.120;6.192;2022-11-20T04:52:22;18.37;;;12.47;;
18102;SDS011;9178;51.120;6.192;2022-11-20T04:54:48;16.60;;;11.60;;
18102;SDS011;9178;51.120;6.192;2022-11-20T04:57:19;18.33;;;12.17;;
18102;SDS011;9178;51.120;6.192;2022-11-20T04:59:46;17.67;;;11.50;;
18102;SDS011;9178;51.120;6.192;2022-11-20T05:02:13;17.60;;;12.40;;
18102;SDS011;9178;51.120;6.192;2022-11-20T05:04:39;18.67;;;12.03;;
18102;SDS011;9178;51.120;6.192;2022-11-20T05:07:06;16.67;;;11.70;;
18102;SDS011;9178;51.120;6.192;2022-11-20T05:09:33;19.67;;;12.83;;
18102;SDS011;9178;51.120;6.192;2022-11-20T05:12:00;20.57;;;12.50;;
18102;SDS011;9178;51.120;6.192;2022-11-20T05:14:28;19.13;;;12.87;;
18102;SDS011;9178;51.120;6.192;2022-11-20T05:16:54;18.03;;;12.37;;
18102;SDS011;9178;51.120;6.192;2022-11-20T05:19:21;18.10;;;11.87;;
18102;SDS011;9178;51.120;6.192;2022-11-20T05:21:48;17.10;;;11.60;;
18102;SDS011;9178;51.120;6.192;2022-11-20T05:24:15;20.53;;;12.20;;
18102;SDS011;9178;51.120;6.192;2022-11-20T05:26:42;18.30;;;11.83;;
18102;SDS011;9178;51.120;6.192;2022-11-20T05:29:09;17.73;;;11.27;;
18102;SDS011;9178;51.120;6.192;2022-11-20T05:31:39;20.00;;;11.33;;
18102;SDS011;9178;51.120;6.192;2022-11-20T05:34:06;19.03;;;12.63;;
18102;SDS011;9178;51.120;6.192;2022-11-20T05:36:34;17.60;;;11.70;;
18102;SDS011;9178;51.120;6.192;2022-11-20T05:39:00;17.67;;;11.77;;
18102;SDS011;9178;51.120;6.192;2022-11-20T05:41:27;20.20;;;12.47;;
18102;SDS011;9178;51.120;6.192;2022-11-20T05:43:55;19.03;;;11.77;;
18102;SDS011;9178;51.120;6.192;2022-11-20T05:46:23;19.03;;;13.00;;
18102;SDS011;9178;51.120;6.192;2022-11-20T05:48:51;20.97;;;12.43;;
18102;SDS011;9178;51.120;6.192;2022-11-20T05:51:18;18.80;;;12.30;;
18102;SDS011;9178;51.120;6.192;2022-11-20T05:53:45;17.03;;;11.47;;
18102;SDS011;9178;51.120;6.192;2022-11-20T05:56:14;20.33;;;12.93;;
18102;SDS011;9178;51.120;6.192;2022-11-20T05:58:41;18.73;;;12.30;;
18102;SDS011;9178;51.120;6.192;2022-11-20T06:01:09;18.93;;;12.67;;
18102;SDS011;9178;51.120;6.192;2022-11-20T06:03:38;21.10;;;13.00;;
18102;SDS011;9178;51.120;6.192;2022-11-20T06:06:06;21.57;;;13.20;;
18102;SDS011;9178;51.120;6.192;2022-11-20T06:08:34;17.97;;;12.43;;
18102;SDS011;9178;51.120;6.192;2022-11-20T06:11:04;18.50;;;11.90;;
18102;SDS011;9178;51.120;6.192;2022-11-20T06:13:31;19.40;;;12.57;;
18102;SDS011;9178;51.120;6.192;2022-11-20T06:15:58;19.17;;;12.40;;
18102;SDS011;9178;51.120;6.192;2022-11-20T06:18:25;19.97;;;12.70;;
18102;SDS011;9178;51.120;6.192;2022-11-20T06:20:58;19.53;;;12.70;;
18102;SDS011;9178;51.120;6.192;2022-11-20T06:23:29;18.20;;;11.93;;
18102;SDS011;9178;51.120;6.192;2022-11-20T06:25:56;19.20;;;12.40;;
18102;SDS011;9178;51.120;6.192;2022-11-20T06:28:23;20.93;;;12.53;;
18102;SDS011;9178;51.120;6.192;2022-11-20T06:30:49;18.97;;;12.07;;
18102;SDS011;9178;51.120;6.192;2022-11-20T06:33:16;18.67;;;12.10;;
18102;SDS011;9178;51.120;6.192;2022-11-20T06:35:43;20.60;;;12.63;;
18102;SDS011;9178;51.120;6.192;2022-11-20T06:38:09;21.63;;;12.50;;
18102;SDS011;9178;51.120;6.192;2022-11-20T06:40:40;19.73;;;13.23;;
18102;SDS011;9178;51.120;6.192;2022-11-20T06:43:07;19.63;;;13.53;;
18102;SDS011;9178;51.120;6.192;2022-11-20T06:45:34;21.57;;;13.27;;
18102;SDS011;9178;51.120;6.192;2022-11-20T06:48:01;22.10;;;12.67;;
18102;SDS011;9178;51.120;6.192;2022-11-20T06:50:28;20.03;;;12.40;;
18102;SDS011;9178;51.120;6.192;2022-11-20T06:52:55;18.60;;;12.10;;
18102;SDS011;9178;51.120;6.192;2022-11-20T06:55:22;18.10;;;12.07;;
18102;SDS011;9178;51.120;6.192;2022-11-20T06:57:51;18.00;;;12.03;;
18102;SDS011;9178;51.120;6.192;2022-11-20T07:00:18;21.17;;;11.83;;
18102;SDS011;9178;51.120;6.192;2022-11-20T07:02:45;19.53;;;12.73;;
18102;SDS011;9178;51.120;6.192;2022-11-20T07:05:11;18.53;;;12.30;;
18102;SDS011;9178;51.120;6.192;2022-11-20T07:07:38;20.30;;;12.30;;
18102;SDS011;9178;51.120;6.192;2022-11-20T07:10:05;18.90;;;13.10;;
18102;SDS011;9178;51.120;6.192;2022-11-20T07:12:34;19.60;;;12.63;;
18102;SDS011;9178;51.120;6.192;2022-11-20T07:15:02;18.40;;;11.90;;
18102;SDS011;9178;51.120;6.192;2022-11-20T07:17:32;20.33;;;12.20;;
18102;SDS011;9178;51.120;6.192;2022-11-20T07:19:58;20.47;;;12.40;;
18102;SDS011;9178;51.120;6.192;2022-11-20T07:22:25;23.63;;;13.40;;
18102;SDS011;9178;51.120;6.192;2022-11-20T07:24:52;19.67;;;12.50;;
18102;SDS011;9178;51.120;6.192;2022-11-20T07:27:19;23.17;;;12.77;;
18102;SDS011;9178;51.120;6.192;2022-11-20T07:29:46;20.53;;;12.60;;
18102;SDS011;9178;51.120;6.192;2022-11-20T07:32:14;23.30;;;12.60;;
18102;SDS011;9178;51.120;6.192;2022-11-20T07:34:41;22.47;;;12.70;;
18102;SDS011;9178;51.120;6.192;2022-11-20T07:37:08;23.47;;;13.10;;
18102;SDS011;9178;51.120;6.192;2022-11-20T07:39:35;21.70;;;12.83;;
18102;SDS011;9178;51.120;6.192;2022-11-20T07:42:02;25.33;;;13.50;;
18102;SDS011;9178;51.120;6.192;2022-11-20T07:44:28;27.50;;;13.73;;
18102;SDS011;9178;51.120;6.192;2022-11-20T07:46:55;25.93;;;14.30;;
18102;SDS011;9178;51.120;6.192;2022-11-20T07:49:23;27.87;;;14.07;;
18102;SDS011;9178;51.120;6.192;2022-11-20T07:51:50;22.23;;;12.83;;
18102;SDS011;9178;51.120;6.192;2022-11-20T07:54:18;31.40;;;14.60;;
18102;SDS011;9178;51.120;6.192;2022-11-20T07:56:45;29.87;;;15.53;;
18102;SDS011;9178;51.120;6.192;2022-11-20T07:59:12;30.27;;;14.53;;
18102;SDS011;9178;51.120;6.192;2022-11-20T08:01:39;29.70;;;15.27;;
18102;SDS011;9178;51.120;6.192;2022-11-20T08:04:06;34.17;;;15.83;;
18102;SDS011;9178;51.120;6.192;2022-11-20T08:06:34;32.87;;;16.10;;
18102;SDS011;9178;51.120;6.192;2022-11-20T08:09:01;31.10;;;15.60;;
18102;SDS011;9178;51.120;6.192;2022-11-20T08:11:28;34.90;;;16.50;;
18102;SDS011;9178;51.120;6.192;2022-11-20T08:14:12;41.13;;;17.00;;
18102;SDS011;9178;51.120;6.192;2022-11-20T08:16:40;35.97;;;16.57;;
18102;SDS011;9178;51.120;6.192;2022-11-20T08:19:09;36.00;;;16.77;;
18102;SDS011;9178;51.120;6.192;2022-11-20T08:21:37;35.90;;;17.60;;
18102;SDS011;9178;51.120;6.192;2022-11-20T08:24:04;38.90;;;18.13;;
18102;SDS011;9178;51.120;6.192;2022-11-20T08:26:32;36.13;;;17.13;;
18102;SDS011;9178;51.120;6.192;2022-11-20T08:28:59;38.63;;;17.70;;
18102;SDS011;9178;51.120;6.192;2022-11-20T08:31:26;35.90;;;16.43;;
18102;SDS011;9178;51.120;6.192;2022-11-20T08:33:54;31.80;;;16.83;;
18102;SDS011;9178;51.120;6.192;2022-11-20T08:36:21;34.20;;;16.23;;
18102;SDS011;9178;51.120;6.192;2022-11-20T08:38:50;34.17;;;16.90;;
18102;SDS011;9178;51.120;6.192;2022-11-20T08:41:18;35.20;;;16.87;;
18102;SDS011;9178;51.120;6.192;2022-11-20T08:43:53;32.20;;;16.63;;
18102;SDS011;9178;51.120;6.192;2022-11-20T08:46:21;37.33;;;17.50;;
18102;SDS011;9178;51.120;6.192;2022-11-20T08:48:48;33.30;;;16.13;;
18102;SDS011;9178;51.120;6.192;2022-11-20T08:51:15;40.83;;;17.50;;
18102;SDS011;9178;51.120;6.192;2022-11-20T08:53:42;34.23;;;16.87;;
18102;SDS011;9178;51.120;6.192;2022-11-20T08:56:11;32.57;;;17.07;;
18102;SDS011;9178;51.120;6.192;2022-11-20T08:58:38;37.33;;;17.37;;
18102;SDS011;9178;51.120;6.192;2022-11-20T09:01:05;31.50;;;16.70;;
18102;SDS011;9178;51.120;6.192;2022-11-20T09:03:31;30.47;;;16.10;;
18102;SDS011;9178;51.120;6.192;2022-11-20T09:05:59;32.63;;;17.10;;
18102;SDS011;9178;51.120;6.192;2022-11-20T09:08:26;32.63;;;15.87;;
18102;SDS011;9178;51.120;6.192;2022-11-20T09:10:54;33.83;;;16.30;;
18102;SDS011;9178;51.120;6.192;2022-11-20T09:13:23;34.17;;;16.37;;
18102;SDS011;9178;51.120;6.192;2022-11-20T09:15:54;30.50;;;15.83;;
18102;SDS011;9178;51.120;6.192;2022-11-20T09:18:22;29.57;;;15.57;;
18102;SDS011;9178;51.120;6.192;2022-11-20T09:20:49;33.70;;;15.63;;
18102;SDS011;9178;51.120;6.192;2022-11-20T09:23:16;36.43;;;16.20;;
18102;SDS011;9178;51.120;6.192;2022-11-20T09:25:43;32.30;;;16.30;;
18102;SDS011;9178;51.120;6.192;2022-11-20T09:28:10;29.70;;;15.77;;
18102;SDS011;9178;51.120;6.192;2022-11-20T09:30:38;30.57;;;15.57;;
18102;SDS011;9178;51.120;6.192;2022-11-20T09:33:05;29.50;;;15.10;;
18102;SDS011;9178;51.120;6.192;2022-11-20T09:35:32;31.13;;;16.77;;
18102;SDS011;9178;51.120;6.192;2022-11-20T09:38:03;29.80;;;16.17;;
18102;SDS011;9178;51.120;6.192;2022-11-20T09:40:31;29.43;;;14.90;;
18102;SDS011;9178;51.120;6.192;2022-11-20T09:42:59;30.20;;;14.90;;
18102;SDS011;9178;51.120;6.192;2022-11-20T09:48:30;26.53;;;14.87;;
18102;SDS011;9178;51.120;6.192;2022-11-20T09:51:09;29.10;;;15.00;;
18102;SDS011;9178;51.120;6.192;2022-11-20T09:53:46;25.10;;;13.77;;
18102;SDS011;9178;51.120;6.192;2022-11-20T09:56:25;27.77;;;14.30;;
18102;SDS011;9178;51.120;6.192;2022-11-20T09:58:53;25.23;;;14.20;;
18102;SDS011;9178;51.120;6.192;2022-11-20T10:01:26;26.70;;;14.40;;
18102;SDS011;9178;51.120;6.192;2022-11-20T10:03:57;26.70;;;14.13;;
18102;SDS011;9178;51.120;6.192;2022-11-20T10:06:29;28.73;;;14.13;;
18102;SDS011;9178;51.120;6.192;2022-11-20T10:09:01;26.10;;;14.20;;
18102;SDS011;9178;51.120;6.192;2022-11-20T10:11:34;27.60;;;14.87;;
18102;SDS011;9178;51.120;6.192;2022-11-20T10:14:11;25.30;;;13.60;;
18102;SDS011;9178;51.120;6.192;2022-11-20T10:16:46;25.83;;;13.67;;
18102;SDS011;9178;51.120;6.192;2022-11-20T10:19:30;25.13;;;13.67;;
18102;SDS011;9178;51.120;6.192;2022-11-20T10:22:11;23.33;;;13.20;;
18102;SDS011;9178;51.120;6.192;2022-11-20T10:24:48;24.43;;;13.03;;
18102;SDS011;9178;51.120;6.192;2022-11-20T10:27:31;20.43;;;12.93;;
18102;SDS011;9178;51.120;6.192;2022-11-20T10:30:10;23.13;;;13.07;;
18102;SDS011;9178;51.120;6.192;2022-11-20T10:32:41;23.67;;;13.40;;
18102;SDS011;9178;51.120;6.192;2022-11-20T10:35:14;24.00;;;13.93;;
18102;SDS011;9178;51.120;6.192;2022-11-20T10:37:47;22.80;;;13.37;;
18102;SDS011;9178;51.120;6.192;2022-11-20T10:40:22;26.13;;;13.37;;
18102;SDS011;9178;51.120;6.192;2022-11-20T10:42:53;24.90;;;13.47;;
18102;SDS011;9178;51.120;6.192;2022-11-20T10:45:31;22.83;;;13.40;;
18102;SDS011;9178;51.120;6.192;2022-11-20T10:48:10;24.53;;;13.77;;
18102;SDS011;9178;51.120;6.192;2022-11-20T10:50:54;20.87;;;12.67;;
18102;SDS011;9178;51.120;6.192;2022-11-20T10:53:49;23.57;;;13.70;;
18102;SDS011;9178;51.120;6.192;2022-11-20T10:56:22;21.87;;;13.10;;
18102;SDS011;9178;51.120;6.192;2022-11-20T10:59:02;23.73;;;12.50;;
18102;SDS011;9178;51.120;6.192;2022-11-20T11:01:39;24.83;;;13.23;;
18102;SDS011;9178;51.120;6.192;2022-11-20T11:04:14;21.73;;;13.13;;
18102;SDS011;9178;51.120;6.192;2022-11-20T11:06:49;22.60;;;13.10;;
18102;SDS011;9178;51.120;6.192;2022-11-20T11:09:21;25.53;;;12.67;;
18102;SDS011;9178;51.120;6.192;2022-11-20T11:11:55;23.23;;;13.07;;
18102;SDS011;9178;51.120;6.192;2022-11-20T11:14:22;22.30;;;13.93;;
18102;SDS011;9178;51.120;6.192;2022-11-20T11:16:51;24.80;;;13.47;;
18102;SDS011;9178;51.120;6.192;2022-11-20T11:19:20;26.13;;;14.03;;
18102;SDS011;9178;51.120;6.192;2022-11-20T11:21:47;24.23;;;13.33;;
18102;SDS011;9178;51.120;6.192;2022-11-20T11:24:19;23.10;;;13.07;;
18102;SDS011;9178;51.120;6.192;2022-11-20T11:26:51;26.07;;;14.27;;
18102;SDS011;9178;51.120;6.192;2022-11-20T11:29:21;28.77;;;14.80;;
18102;SDS011;9178;51.120;6.192;2022-11-20T11:31:48;26.53;;;14.70;;
18102;SDS011;9178;51.120;6.192;2022-11-20T11:34:16;26.50;;;15.20;;
18102;SDS011;9178;51.120;6.192;2022-11-20T11:36:49;28.53;;;15.57;;
18102;SDS011;9178;51.120;6.192;2022-11-20T11:39:25;26.17;;;14.33;;
18102;SDS011;9178;51.120;6.192;2022-11-20T11:41:53;27.40;;;15.37;;
18102;SDS011;9178;51.120;6.192;2022-11-20T11:44:21;30.20;;;15.50;;
18102;SDS011;9178;51.120;6.192;2022-11-20T11:47:08;24.23;;;14.43;;
18102;SDS011;9178;51.120;6.192;2022-11-20T11:49:41;26.27;;;14.77;;
18102;SDS011;9178;51.120;6.192;2022-11-20T11:52:10;29.13;;;14.90;;
18102;SDS011;9178;51.120;6.192;2022-11-20T11:54:43;31.30;;;14.93;;
18102;SDS011;9178;51.120;6.192;2022-11-20T11:57:15;25.57;;;15.30;;
18102;SDS011;9178;51.120;6.192;2022-11-20T11:59:51;29.00;;;15.43;;
18102;SDS011;9178;51.120;6.192;2022-11-20T12:02:35;26.97;;;15.10;;
18102;SDS011;9178;51.120;6.192;2022-11-20T12:05:08;26.17;;;15.30;;
18102;SDS011;9178;51.120;6.192;2022-11-20T12:07:45;27.13;;;14.80;;
18102;SDS011;9178;51.120;6.192;2022-11-20T12:10:15;28.67;;;15.47;;
18102;SDS011;9178;51.120;6.192;2022-11-20T12:12:47;26.43;;;14.87;;
18102;SDS011;9178;51.120;6.192;2022-11-20T12:15:22;26.67;;;15.17;;
18102;SDS011;9178;51.120;6.192;2022-11-20T12:17:52;30.47;;;16.30;;
18102;SDS011;9178;51.120;6.192;2022-11-20T12:20:19;25.37;;;14.87;;
18102;SDS011;9178;51.120;6.192;2022-11-20T12:22:51;28.93;;;15.90;;
18102;SDS011;9178;51.120;6.192;2022-11-20T12:25:28;27.10;;;15.57;;
18102;SDS011;9178;51.120;6.192;2022-11-20T12:28:16;29.03;;;14.87;;
18102;SDS011;9178;51.120;6.192;2022-11-20T12:31:00;25.40;;;14.80;;
18102;SDS011;9178;51.120;6.192;2022-11-20T12:33:53;27.53;;;15.07;;
18102;SDS011;9178;51.120;6.192;2022-11-20T12:36:31;27.00;;;14.73;;
18102;SDS011;9178;51.120;6.192;2022-11-20T12:39:10;27.87;;;13.97;;
18102;SDS011;9178;51.120;6.192;2022-11-20T12:41:51;28.00;;;14.60;;
18102;SDS011;9178;51.120;6.192;2022-11-20T12:44:54;32.80;;;16.47;;
18102;SDS011;9178;51.120;6.192;2022-11-20T12:47:39;30.53;;;15.00;;
18102;SDS011;9178;51.120;6.192;2022-11-20T12:50:29;27.67;;;15.80;;
18102;SDS011;9178;51.120;6.192;2022-11-20T12:53:05;28.87;;;14.93;;
18102;SDS011;9178;51.120;6.192;2022-11-20T12:55:42;30.07;;;15.33;;
18102;SDS011;9178;51.120;6.192;2022-11-20T12:58:17;27.30;;;15.17;;
18102;SDS011;9178;51.120;6.192;2022-11-20T13:00:55;25.80;;;14.10;;
18102;SDS011;9178;51.120;6.192;2022-11-20T13:03:40;28.27;;;15.57;;
18102;SDS011;9178;51.120;6.192;2022-11-20T13:06:11;25.47;;;14.80;;
18102;SDS011;9178;51.120;6.192;2022-11-20T13:08:41;26.60;;;15.20;;
18102;SDS011;9178;51.120;6.192;2022-11-20T13:11:14;23.07;;;14.07;;
18102;SDS011;9178;51.120;6.192;2022-11-20T13:13:56;23.33;;;13.77;;
18102;SDS011;9178;51.120;6.192;2022-11-20T13:16:32;23.93;;;13.87;;
18102;SDS011;9178;51.120;6.192;2022-11-20T13:19:04;24.70;;;14.90;;
18102;SDS011;9178;51.120;6.192;2022-11-20T13:21:36;25.50;;;14.20;;
18102;SDS011;9178;51.120;6.192;2022-11-20T13:24:05;25.80;;;14.90;;
18102;SDS011;9178;51.120;6.192;2022-11-20T13:26:34;28.33;;;14.83;;
18102;SDS011;9178;51.120;6.192;2022-11-20T13:29:02;25.90;;;14.47;;
18102;SDS011;9178;51.120;6.192;2022-11-20T13:31:35;29.60;;;15.90;;
18102;SDS011;9178;51.120;6.192;2022-11-20T13:34:07;28.13;;;15.40;;
18102;SDS011;9178;51.120;6.192;2022-11-20T13:36:38;27.40;;;15.10;;
18102;SDS011;9178;51.120;6.192;2022-11-20T13:39:23;28.53;;;15.20;;
18102;SDS011;9178;51.120;6.192;2022-11-20T13:41:55;30.07;;;15.93;;
18102;SDS011;9178;51.120;6.192;2022-11-20T13:44:24;31.50;;;15.77;;
18102;SDS011;9178;51.120;6.192;2022-11-20T13:46:54;29.03;;;15.33;;
18102;SDS011;9178;51.120;6.192;2022-11-20T13:49:23;33.03;;;15.97;;
18102;SDS011;9178;51.120;6.192;2022-11-20T13:51:55;27.73;;;15.60;;
18102;SDS011;9178;51.120;6.192;2022-11-20T13:54:49;33.17;;;14.63;;
18102;SDS011;9178;51.120;6.192;2022-11-20T13:57:36;30.30;;;15.40;;
18102;SDS011;9178;51.120;6.192;2022-11-20T14:00:13;28.10;;;14.63;;
18102;SDS011;9178;51.120;6.192;2022-11-20T14:02:42;27.10;;;15.60;;
18102;SDS011;9178;51.120;6.192;2022-11-20T14:05:15;29.10;;;14.80;;
18102;SDS011;9178;51.120;6.192;2022-11-20T14:07:46;25.93;;;14.93;;
18102;SDS011;9178;51.120;6.192;2022-11-20T14:10:22;27.67;;;15.50;;
18102;SDS011;9178;51.120;6.192;2022-11-20T14:12:51;26.57;;;14.80;;
18102;SDS011;9178;51.120;6.192;2022-11-20T14:15:26;30.97;;;16.17;;
18102;SDS011;9178;51.120;6.192;2022-11-20T14:17:55;34.60;;;16.80;;
18102;SDS011;9178;51.120;6.192;2022-11-20T14:20:23;31.67;;;16.90;;
18102;SDS011;9178;51.120;6.192;2022-11-20T14:22:54;27.60;;;15.77;;
18102;SDS011;9178;51.120;6.192;2022-11-20T14:25:21;31.03;;;16.33;;
18102;SDS011;9178;51.120;6.192;2022-11-20T14:27:54;26.90;;;15.03;;
18102;SDS011;9178;51.120;6.192;2022-11-20T14:30:23;27.10;;;14.33;;
18102;SDS011;9178;51.120;6.192;2022-11-20T14:32:53;26.47;;;13.43;;
18102;SDS011;9178;51.120;6.192;2022-11-20T14:35:24;27.00;;;13.97;;
18102;SDS011;9178;51.120;6.192;2022-11-20T14:37:52;21.73;;;13.53;;
18102;SDS011;9178;51.120;6.192;2022-11-20T14:40:25;25.80;;;13.47;;
18102;SDS011;9178;51.120;6.192;2022-11-20T14:42:55;24.40;;;13.20;;
18102;SDS011;9178;51.120;6.192;2022-11-20T14:45:23;24.13;;;13.83;;
18102;SDS011;9178;51.120;6.192;2022-11-20T14:47:51;27.10;;;14.47;;
18102;SDS011;9178;51.120;6.192;2022-11-20T14:50:19;25.87;;;13.97;;
18102;SDS011;9178;51.120;6.192;2022-11-20T14:52:53;26.60;;;14.30;;